Time;durP1;ratioP1;P1;durP2;ratioP2;P2;SDS_P1;SDS_P2;PMS_P1;PMS_P2;Temp;Humidity;BMP_temperature;BMP_pressure;BME280_temperature;BME280_humidity;BME280_pressure;Samples;Min_cycle;Max_cycle;Signal;HPM_P1;HPM_P2
2022/05/02 00:01:08;;;;;;;4.45;2.80;;;;;;;;;;5053575;28;20511;-39
2022/05/02 00:03:34;;;;;;;2.67;1.95;;;;;;;;;;5050945;28;20032;-38
2022/05/02 00:06:03;;;;;;;8.52;3.95;;;;;;;;;;5053716;28;20024;-37
2022/05/02 00:08:30;;;;;;;4.45;2.70;;;;;;;;;;5053541;28;20111;-36
2022/05/02 00:11:01;;;;;;;7.65;4.07;;;;;;;;;;5049705;28;20021;-37
2022/05/02 00:13:27;;;;;;;13.02;4.38;;;;;;;;;;5053518;28;20065;-38
2022/05/02 00:15:53;;;;;;;19.88;9.30;;;;;;;;;;5052914;28;20025;-37
2022/05/02 00:18:22;;;;;;;12.68;5.35;;;;;;;;;;5053264;28;20020;-40
2022/05/02 00:20:48;;;;;;;15.15;8.23;;;;;;;;;;5053218;28;20043;-37
2022/05/02 00:23:14;;;;;;;8.55;4.72;;;;;;;;;;5052998;28;20025;-39
2022/05/02 00:25:41;;;;;;;21.73;10.63;;;;;;;;;;5052977;28;20384;-41
2022/05/02 00:28:11;;;;;;;28.55;15.70;;;;;;;;;;5053163;28;20017;-38
2022/05/02 00:30:38;;;;;;;6.00;3.63;;;;;;;;;;5053246;28;20083;-39
2022/05/02 00:33:04;;;;;;;3.08;2.30;;;;;;;;;;5053169;28;20110;-36
2022/05/02 00:35:32;;;;;;;8.35;4.38;;;;;;;;;;5053180;28;20028;-35
2022/05/02 00:37:58;;;;;;;4.78;2.50;;;;;;;;;;5053027;28;20028;-39
2022/05/02 00:40:25;;;;;;;17.15;10.73;;;;;;;;;;5052945;28;20027;-39
2022/05/02 00:42:51;;;;;;;12.10;7.00;;;;;;;;;;5052666;28;20037;-38
2022/05/02 00:45:18;;;;;;;6.43;4.13;;;;;;;;;;5052543;28;20063;-37
2022/05/02 00:47:51;;;;;;;13.32;7.97;;;;;;;;;;5052970;28;20028;-39
2022/05/02 00:50:19;;;;;;;17.92;9.90;;;;;;;;;;5051047;28;20136;-39
2022/05/02 00:52:49;;;;;;;21.80;11.15;;;;;;;;;;5052762;28;20048;-38
2022/05/02 00:55:15;;;;;;;8.85;5.63;;;;;;;;;;5052876;28;20403;-40
2022/05/02 00:57:41;;;;;;;7.57;3.58;;;;;;;;;;5052891;28;20017;-38
2022/05/02 01:00:07;;;;;;;13.40;6.95;;;;;;;;;;5052499;28;20063;-39
2022/05/02 01:02:36;;;;;;;12.57;6.70;;;;;;;;;;5052826;28;20025;-38
2022/05/02 01:05:02;;;;;;;9.00;5.32;;;;;;;;;;5052751;28;20506;-39
2022/05/02 01:07:28;;;;;;;9.73;4.30;;;;;;;;;;5052655;28;20108;-38
2022/05/02 01:09:54;;;;;;;6.55;3.97;;;;;;;;;;5052907;28;20024;-37
2022/05/02 01:12:24;;;;;;;6.40;3.17;;;;;;;;;;5060316;28;20052;-36
2022/05/02 01:14:53;;;;;;;7.28;3.10;;;;;;;;;;5072910;28;20028;-38
2022/05/02 01:17:20;;;;;;;11.75;6.25;;;;;;;;;;5073019;28;20108;-39
2022/05/02 01:19:47;;;;;;;15.45;9.48;;;;;;;;;;5072520;28;20373;-39
2022/05/02 01:22:13;;;;;;;12.20;6.25;;;;;;;;;;5073192;28;20021;-36
2022/05/02 01:24:40;;;;;;;10.40;5.95;;;;;;;;;;5057579;28;20021;-37
2022/05/02 01:27:07;;;;;;;11.15;6.85;;;;;;;;;;5053082;28;20025;-36
2022/05/02 01:29:34;;;;;;;12.27;6.90;;;;;;;;;;5052998;28;20025;-36
2022/05/02 01:32:05;;;;;;;10.25;6.40;;;;;;;;;;5052882;28;20477;-37
2022/05/02 01:34:31;;;;;;;12.60;7.47;;;;;;;;;;5053090;28;20040;-36
2022/05/02 01:36:57;;;;;;;8.25;3.90;;;;;;;;;;5053689;28;20053;-35
2022/05/02 01:39:23;;;;;;;6.53;3.80;;;;;;;;;;5053097;28;20500;-36
2022/05/02 01:41:49;;;;;;;6.95;4.35;;;;;;;;;;5053090;28;20487;-36
2022/05/02 01:44:15;;;;;;;11.38;5.35;;;;;;;;;;5052876;28;20096;-36
2022/05/02 01:46:41;;;;;;;10.95;5.63;;;;;;;;;;5052801;28;20029;-35
2022/05/02 01:49:07;;;;;;;6.32;3.72;;;;;;;;;;5052690;28;20100;-36
2022/05/02 01:51:33;;;;;;;8.82;5.82;;;;;;;;;;5052683;28;20041;-37
2022/05/02 01:53:59;;;;;;;6.70;3.65;;;;;;;;;;5054057;28;20432;-36
2022/05/02 01:56:26;;;;;;;8.75;4.55;;;;;;;;;;5056721;28;20025;-36
2022/05/02 01:58:52;;;;;;;8.52;4.47;;;;;;;;;;5056590;28;20024;-36
2022/05/02 02:01:18;;;;;;;6.63;3.97;;;;;;;;;;5056227;28;20102;-37
2022/05/02 02:03:45;;;;;;;7.50;3.53;;;;;;;;;;5055918;28;20476;-35
2022/05/02 02:06:11;;;;;;;7.07;3.83;;;;;;;;;;5056242;28;20115;-39
2022/05/02 02:08:37;;;;;;;4.43;3.05;;;;;;;;;;5056417;28;20400;-38
2022/05/02 02:11:05;;;;;;;6.90;3.45;;;;;;;;;;5056263;28;20032;-39
2022/05/02 02:13:31;;;;;;;6.95;3.88;;;;;;;;;;5056268;28;20072;-39
2022/05/02 02:15:57;;;;;;;8.82;5.13;;;;;;;;;;5056036;28;20365;-39
2022/05/02 02:18:23;;;;;;;7.70;4.10;;;;;;;;;;5056271;28;20040;-37
2022/05/02 02:20:52;;;;;;;13.52;7.63;;;;;;;;;;5054974;28;20033;-37
2022/05/02 02:23:18;;;;;;;7.03;4.28;;;;;;;;;;5055984;28;20056;-39
2022/05/02 02:25:44;;;;;;;7.07;4.07;;;;;;;;;;5055766;28;20037;-39
2022/05/02 02:28:12;;;;;;;6.50;3.20;;;;;;;;;;5056051;28;20083;-37
2022/05/02 02:30:38;;;;;;;10.52;5.13;;;;;;;;;;5055681;28;20104;-38
2022/05/02 02:33:05;;;;;;;5.03;3.50;;;;;;;;;;5055765;28;20036;-36
2022/05/02 02:35:31;;;;;;;8.40;4.18;;;;;;;;;;5055648;28;20515;-37
2022/05/02 02:37:57;;;;;;;10.07;5.05;;;;;;;;;;5055279;28;20087;-36
2022/05/02 02:40:23;;;;;;;5.05;3.78;;;;;;;;;;5054528;28;20036;-37
2022/05/02 02:42:50;;;;;;;4.47;2.83;;;;;;;;;;5055820;28;20021;-38
2022/05/02 02:45:16;;;;;;;5.40;3.60;;;;;;;;;;5055559;28;20021;-41
2022/05/02 02:47:43;;;;;;;4.95;3.17;;;;;;;;;;5055438;28;20079;-40
2022/05/02 02:50:09;;;;;;;8.15;4.13;;;;;;;;;;5055204;28;20523;-40
2022/05/02 02:52:35;;;;;;;4.13;3.10;;;;;;;;;;5055603;28;20026;-41
2022/05/02 02:55:04;;;;;;;7.38;4.68;;;;;;;;;;5055351;28;20381;-38
2022/05/02 02:57:30;;;;;;;6.60;4.22;;;;;;;;;;5055275;28;20025;-40
2022/05/02 02:59:56;;;;;;;5.68;3.40;;;;;;;;;;5055190;28;20029;-38
2022/05/02 03:02:23;;;;;;;8.07;4.75;;;;;;;;;;5055275;28;20029;-39
2022/05/02 03:07:34;;;;;;;5.60;3.47;;;;;;;;;;5055642;28;20094;-37
2022/05/02 03:10:01;;;;;;;8.43;4.50;;;;;;;;;;5055098;28;20028;-37
2022/05/02 03:12:27;;;;;;;7.05;3.92;;;;;;;;;;5055220;28;20048;-38
2022/05/02 03:14:53;;;;;;;7.15;3.15;;;;;;;;;;5054923;28;20036;-38
2022/05/02 03:17:21;;;;;;;8.45;4.30;;;;;;;;;;5055000;28;20029;-38
2022/05/02 03:19:47;;;;;;;6.30;4.60;;;;;;;;;;5054479;28;20031;-37
2022/05/02 03:22:16;;;;;;;7.35;4.53;;;;;;;;;;5054721;28;20481;-37
2022/05/02 03:24:42;;;;;;;4.03;3.15;;;;;;;;;;5054819;28;20017;-39
2022/05/02 03:27:08;;;;;;;11.13;6.40;;;;;;;;;;5054974;28;20025;-38
2022/05/02 03:29:36;;;;;;;6.47;3.67;;;;;;;;;;5054990;28;20028;-38
2022/05/02 03:32:02;;;;;;;8.38;3.63;;;;;;;;;;5054428;28;20381;-36
2022/05/02 03:34:28;;;;;;;5.03;3.60;;;;;;;;;;5054375;28;20090;-37
2022/05/02 03:36:56;;;;;;;6.65;4.35;;;;;;;;;;5054798;28;20040;-38
2022/05/02 03:39:22;;;;;;;7.32;3.80;;;;;;;;;;5054759;28;20035;-37
2022/05/02 03:41:49;;;;;;;10.57;6.15;;;;;;;;;;5054632;28;20029;-38
2022/05/02 03:44:16;;;;;;;5.88;3.88;;;;;;;;;;5054653;28;20103;-37
2022/05/02 03:46:44;;;;;;;8.23;4.43;;;;;;;;;;5054305;28;20067;-37
2022/05/02 03:49:10;;;;;;;4.78;3.20;;;;;;;;;;5054272;28;20087;-38
2022/05/02 03:51:36;;;;;;;6.03;3.45;;;;;;;;;;5054397;28;20090;-37
2022/05/02 03:54:02;;;;;;;6.38;3.40;;;;;;;;;;5054156;28;20028;-36
2022/05/02 03:56:28;;;;;;;4.45;3.33;;;;;;;;;;5054383;28;20021;-38
2022/05/02 03:58:55;;;;;;;6.78;4.32;;;;;;;;;;5054159;28;20025;-37
2022/05/02 04:01:21;;;;;;;5.00;3.65;;;;;;;;;;5054022;28;20025;-38
2022/05/02 04:03:47;;;;;;;7.57;3.40;;;;;;;;;;5054074;28;20083;-37
2022/05/02 04:06:13;;;;;;;7.30;4.65;;;;;;;;;;5054052;28;20032;-37
2022/05/02 04:08:39;;;;;;;6.05;3.70;;;;;;;;;;5054193;28;20021;-38
2022/05/02 04:11:05;;;;;;;8.45;3.83;;;;;;;;;;5054001;28;20031;-38
2022/05/02 04:13:31;;;;;;;7.30;4.45;;;;;;;;;;5052707;28;20052;-36
2022/05/02 04:15:58;;;;;;;7.50;5.22;;;;;;;;;;5053330;28;20040;-37
2022/05/02 04:18:24;;;;;;;3.83;3.03;;;;;;;;;;5053821;28;20021;-40
2022/05/02 04:20:51;;;;;;;3.95;3.20;;;;;;;;;;5054558;28;20136;-37
2022/05/02 04:23:18;;;;;;;4.60;3.42;;;;;;;;;;5054301;28;20100;-36
2022/05/02 04:25:44;;;;;;;6.20;3.88;;;;;;;;;;5053810;28;20029;-39
2022/05/02 04:28:11;;;;;;;4.55;3.55;;;;;;;;;;5053696;28;20021;-38
2022/05/02 04:30:38;;;;;;;5.97;3.70;;;;;;;;;;5053449;28;20063;-37
2022/05/02 04:33:04;;;;;;;5.28;3.75;;;;;;;;;;5052252;28;20025;-36
2022/05/02 04:35:30;;;;;;;5.53;3.40;;;;;;;;;;5053589;28;20033;-39
2022/05/02 04:37:57;;;;;;;4.70;3.70;;;;;;;;;;5053160;28;20102;-36
2022/05/02 04:40:23;;;;;;;5.18;3.70;;;;;;;;;;5053449;28;20540;-45
2022/05/02 04:42:49;;;;;;;4.22;3.10;;;;;;;;;;5053610;28;20066;-45
2022/05/02 04:45:15;;;;;;;7.60;4.22;;;;;;;;;;5053367;28;20032;-38
2022/05/02 04:47:43;;;;;;;5.38;3.90;;;;;;;;;;5053375;28;20058;-52
2022/05/02 04:50:10;;;;;;;4.50;3.30;;;;;;;;;;5053292;28;20045;-40
2022/05/02 04:52:36;;;;;;;5.90;3.42;;;;;;;;;;5053264;28;20061;-39
2022/05/02 04:55:03;;;;;;;6.78;4.15;;;;;;;;;;5053304;28;20071;-56
2022/05/02 04:57:29;;;;;;;4.60;3.60;;;;;;;;;;5053445;28;20021;-45
2022/05/02 04:59:55;;;;;;;6.13;3.40;;;;;;;;;;5053206;28;20113;-39
2022/05/02 05:02:22;;;;;;;3.22;2.92;;;;;;;;;;5053348;28;20103;-49
2022/05/02 05:04:48;;;;;;;5.43;3.47;;;;;;;;;;5053148;28;20028;-47
2022/05/02 05:07:14;;;;;;;6.22;5.53;;;;;;;;;;5053297;28;20021;-49
2022/05/02 05:09:40;;;;;;;5.82;4.03;;;;;;;;;;5053366;28;20028;-39
2022/05/02 05:12:19;;;;;;;6.18;5.00;;;;;;;;;;5052226;28;20026;-51
2022/05/02 05:17:57;;;;;;;5.43;4.07;;;;;;;;;;5053121;28;20036;-37
2022/05/02 05:20:49;;;;;;;3.70;2.88;;;;;;;;;;5053333;28;20032;-38
2022/05/02 05:23:16;;;;;;;6.22;4.05;;;;;;;;;;5050243;28;20036;-38
2022/05/02 05:25:42;;;;;;;4.50;2.78;;;;;;;;;;5052842;28;20465;-38
2022/05/02 05:28:17;;;;;;;5.00;2.90;;;;;;;;;;5055345;28;20037;-40
2022/05/02 05:30:45;;;;;;;3.70;2.88;;;;;;;;;;5056974;28;20473;-38
2022/05/02 05:33:25;;;;;;;4.60;2.53;;;;;;;;;;5056959;28;20108;-38
2022/05/02 05:35:58;;;;;;;3.60;2.72;;;;;;;;;;5056966;28;20049;-39
2022/05/02 05:38:35;;;;;;;3.50;2.65;;;;;;;;;;5056928;28;20013;-38
2022/05/02 05:41:20;;;;;;;4.28;3.90;;;;;;;;;;5057029;28;20108;-38
2022/05/02 05:43:55;;;;;;;2.85;2.28;;;;;;;;;;5056897;28;20037;-38
2022/05/02 05:46:23;;;;;;;3.47;2.13;;;;;;;;;;5056577;28;20049;-38
2022/05/02 05:48:58;;;;;;;3.67;2.15;;;;;;;;;;5056444;28;20036;-39
2022/05/02 05:51:39;;;;;;;2.85;2.20;;;;;;;;;;5056508;28;20082;-38
2022/05/02 05:54:05;;;;;;;2.72;2.10;;;;;;;;;;5055930;28;20040;-40
2022/05/02 05:56:40;;;;;;;6.97;2.70;;;;;;;;;;5056698;28;20029;-38
2022/05/02 05:59:08;;;;;;;4.68;2.22;;;;;;;;;;5056521;28;20029;-38
2022/05/02 06:01:37;;;;;;;3.20;2.70;;;;;;;;;;5056160;28;20032;-38
2022/05/02 06:04:04;;;;;;;2.83;2.30;;;;;;;;;;5056639;28;20128;-38
2022/05/02 06:06:30;;;;;;;4.13;2.40;;;;;;;;;;5056513;28;20083;-44
2022/05/02 06:09:02;;;;;;;3.85;2.40;;;;;;;;;;5056501;28;20024;-38
2022/05/02 06:11:29;;;;;;;2.55;2.13;;;;;;;;;;5056290;28;20427;-37
2022/05/02 06:13:57;;;;;;;3.13;2.40;;;;;;;;;;5054671;28;20543;-37
2022/05/02 06:19:15;;;;;;;3.63;2.50;;;;;;;;;;5056321;28;20430;-41
2022/05/02 06:21:44;;;;;;;3.97;2.10;;;;;;;;;;5055988;28;20075;-37
2022/05/02 06:24:13;;;;;;;4.38;2.47;;;;;;;;;;5055856;28;20017;-37
2022/05/02 06:26:40;;;;;;;5.65;2.38;;;;;;;;;;5056028;28;20025;-38
2022/05/02 06:29:09;;;;;;;3.60;2.63;;;;;;;;;;5055906;28;20025;-38
2022/05/02 06:31:44;;;;;;;4.90;2.10;;;;;;;;;;5055728;28;20033;-38
2022/05/02 06:34:10;;;;;;;3.88;1.92;;;;;;;;;;5054504;28;20110;-37
2022/05/02 06:36:59;;;;;;;3.10;1.58;;;;;;;;;;5056017;28;20017;-37
2022/05/02 06:39:29;;;;;;;2.70;1.70;;;;;;;;;;5013409;28;20037;-38
2022/05/02 06:42:13;;;;;;;4.43;1.90;;;;;;;;;;5014283;28;20038;-39
2022/05/02 06:44:44;;;;;;;5.43;1.92;;;;;;;;;;5013931;28;20087;-38
2022/05/02 06:47:19;;;;;;;2.00;1.57;;;;;;;;;;5013597;28;20149;-37
2022/05/02 06:49:47;;;;;;;4.75;2.47;;;;;;;;;;5013123;28;20128;-39
2022/05/02 06:52:13;;;;;;;3.47;2.00;;;;;;;;;;5013779;28;20041;-38
2022/05/02 06:55:17;;;;;;;3.08;1.92;;;;;;;;;;5013549;28;20038;-37
2022/05/02 06:57:49;;;;;;;3.00;2.28;;;;;;;;;;4936004;29;20032;-38
2022/05/02 07:00:17;;;;;;;4.32;1.58;;;;;;;;;;4935857;29;20234;-38
2022/05/02 07:03:02;;;;;;;2.78;2.08;;;;;;;;;;4935872;29;20099;-37
2022/05/02 07:05:35;;;;;;;4.82;1.80;;;;;;;;;;4936092;29;20036;-37
2022/05/02 07:08:05;;;;;;;2.28;1.70;;;;;;;;;;4935730;29;20387;-37
2022/05/02 07:10:33;;;;;;;5.22;1.80;;;;;;;;;;4935381;29;20032;-38
2022/05/02 07:12:59;;;;;;;3.08;1.60;;;;;;;;;;4935833;29;20043;-39
2022/05/02 07:15:45;;;;;;;4.43;1.60;;;;;;;;;;4938219;28;20046;-39
2022/05/02 07:18:30;;;;;;;1.98;1.50;;;;;;;;;;4973943;28;20073;-39
2022/05/02 07:21:00;;;;;;;3.05;1.75;;;;;;;;;;4974076;28;20129;-39
2022/05/02 07:23:26;;;;;;;1.98;1.20;;;;;;;;;;4974011;28;20031;-38
2022/05/02 07:26:06;;;;;;;1.90;1.48;;;;;;;;;;4973678;28;20039;-39
2022/05/02 07:28:44;;;;;;;4.05;1.50;;;;;;;;;;4974017;28;20486;-39
2022/05/02 07:31:10;;;;;;;2.58;1.30;;;;;;;;;;4996513;28;20549;-40
2022/05/02 07:33:40;;;;;;;1.70;1.23;;;;;;;;;;5054432;28;20036;-40
2022/05/02 07:36:07;;;;;;;5.78;1.75;;;;;;;;;;5054453;28;20100;-37
2022/05/02 07:38:34;;;;;;;3.72;1.70;;;;;;;;;;5054608;28;20032;-39
2022/05/02 07:41:22;;;;;;;2.92;1.45;;;;;;;;;;5054738;28;20033;-37
2022/05/02 07:43:49;;;;;;;2.00;1.50;;;;;;;;;;5054608;28;20044;-36
2022/05/02 07:46:20;;;;;;;1.55;1.10;;;;;;;;;;5054322;28;20017;-38
2022/05/02 07:48:46;;;;;;;1.88;1.15;;;;;;;;;;5054464;28;20443;-39
2022/05/02 07:51:16;;;;;;;2.65;1.38;;;;;;;;;;5053352;28;20091;-39
2022/05/02 07:53:44;;;;;;;4.88;1.58;;;;;;;;;;5053979;28;20024;-40
2022/05/02 07:56:13;;;;;;;1.88;1.20;;;;;;;;;;5054341;28;20028;-40
2022/05/02 07:58:44;;;;;;;2.25;1.40;;;;;;;;;;5054247;28;20040;-42
2022/05/02 08:01:10;;;;;;;2.63;1.50;;;;;;;;;;5054041;28;20064;-41
2022/05/02 08:03:36;;;;;;;2.72;1.67;;;;;;;;;;5054258;28;20384;-41
2022/05/02 08:06:10;;;;;;;3.67;1.08;;;;;;;;;;5054069;28;20461;-42
2022/05/02 08:08:51;;;;;;;3.72;1.30;;;;;;;;;;5052552;28;20025;-40
2022/05/02 08:11:43;;;;;;;1.85;1.27;;;;;;;;;;5052176;28;20048;-38
2022/05/02 08:14:25;;;;;;;1.90;1.30;;;;;;;;;;5051844;28;20440;-38
2022/05/02 08:17:08;;;;;;;1.83;1.20;;;;;;;;;;5050459;28;20017;-40
2022/05/02 08:19:49;;;;;;;3.53;2.20;;;;;;;;;;5051059;28;20017;-41
2022/05/02 08:28:02;;;;;;;3.40;1.67;;;;;;;;;;5050613;28;20063;-39
2022/05/02 08:30:32;;;;;;;2.15;1.42;;;;;;;;;;5053021;28;20036;-41
2022/05/02 08:33:01;;;;;;;2.42;1.70;;;;;;;;;;5053122;28;20021;-39
2022/05/02 08:35:45;;;;;;;2.35;1.45;;;;;;;;;;5053329;28;20025;-38
2022/05/02 08:38:17;;;;;;;7.22;2.30;;;;;;;;;;5050486;28;20025;-40
2022/05/02 08:40:53;;;;;;;3.15;1.70;;;;;;;;;;5053494;28;20100;-39
2022/05/02 08:43:28;;;;;;;2.45;1.70;;;;;;;;;;5053560;28;20100;-39
2022/05/02 08:46:09;;;;;;;4.18;1.80;;;;;;;;;;5053530;28;20032;-41
2022/05/02 08:49:32;;;;;;;6.00;3.45;;;;;;;;;;5053333;28;20032;-39
2022/05/02 08:52:00;;;;;;;3.25;2.53;;;;;;;;;;5053179;28;20053;-38
2022/05/02 08:54:49;;;;;;;7.25;3.25;;;;;;;;;;5052956;28;20041;-38
2022/05/02 08:57:39;;;;;;;5.82;3.28;;;;;;;;;;5047849;28;20079;-39
2022/05/02 09:00:09;;;;;;;;;;;;;;;;;;5053597;28;20045;-36
2022/05/02 09:02:54;;;;;;;3.10;1.35;;;;;;;;;;5052852;28;19913;-38
2022/05/02 09:05:26;;;;;;;8.23;4.00;;;;;;;;;;5053256;28;20021;-41
2022/05/02 09:08:13;;;;;;;3.35;2.28;;;;;;;;;;5053130;28;20028;-41
2022/05/02 09:10:58;;;;;;;5.07;2.42;;;;;;;;;;5053092;28;20370;-41
2022/05/02 09:13:27;;;;;;;5.90;4.00;;;;;;;;;;5053042;28;20021;-41
2022/05/02 09:16:11;;;;;;;3.40;1.65;;;;;;;;;;5053192;28;20389;-44
2022/05/02 09:18:43;;;;;;;5.30;1.73;;;;;;;;;;5053086;28;20473;-40
2022/05/02 09:21:22;;;;;;;7.72;1.80;;;;;;;;;;5053128;28;20096;-42
2022/05/02 09:24:12;;;;;;;2.10;1.10;;;;;;;;;;5052942;28;20112;-39
2022/05/02 09:26:41;;;;;;;6.20;2.20;;;;;;;;;;5053254;28;20440;-41
2022/05/02 09:29:13;;;;;;;8.05;4.00;;;;;;;;;;5053048;28;20029;-38
2022/05/02 09:31:59;;;;;;;9.77;4.85;;;;;;;;;;5052856;28;20150;-39
2022/05/02 09:34:37;;;;;;;3.67;2.22;;;;;;;;;;5053033;28;20061;-41
2022/05/02 09:37:07;;;;;;;2.38;1.42;;;;;;;;;;5053061;28;20066;-41
2022/05/02 09:39:46;;;;;;;4.68;2.78;;;;;;;;;;5053388;28;20108;-40
2022/05/02 09:42:14;;;;;;;6.28;2.78;;;;;;;;;;5052799;28;20036;-39
2022/05/02 09:50:43;;;;;;;2.50;1.10;;;;;;;;;;5052637;28;20055;-39
2022/05/02 09:53:28;;;;;;;1.75;1.40;;;;;;;;;;5052986;28;20477;-40
2022/05/02 09:59:07;;;;;;;4.18;1.35;;;;;;;;;;5052946;28;20460;-39
2022/05/02 10:01:38;;;;;;;4.00;1.30;;;;;;;;;;5052774;28;20107;-38
2022/05/02 10:04:18;;;;;;;2.70;1.27;;;;;;;;;;5051665;28;20040;-38
2022/05/02 10:06:51;;;;;;;1.27;1.08;;;;;;;;;;5052689;28;20037;-39
2022/05/02 10:09:36;;;;;;;3.40;1.27;;;;;;;;;;5052662;28;20029;-39
2022/05/02 10:12:20;;;;;;;4.35;1.33;;;;;;;;;;5052541;28;20036;-41
2022/05/02 10:14:52;;;;;;;8.07;4.85;;;;;;;;;;5054215;28;20110;-38
2022/05/02 10:17:31;;;;;;;5.95;3.33;;;;;;;;;;5056073;28;20025;-39
2022/05/02 10:19:57;;;;;;;4.85;3.05;;;;;;;;;;5056019;28;20019;-41
2022/05/02 10:22:31;;;;;;;6.85;3.67;;;;;;;;;;5056081;28;20056;-41
2022/05/02 10:25:12;;;;;;;4.45;1.83;;;;;;;;;;5055897;28;20021;-42
2022/05/02 10:27:44;;;;;;;4.38;2.90;;;;;;;;;;5056084;28;20104;-41
2022/05/02 10:30:12;;;;;;;6.40;3.17;;;;;;;;;;5055799;28;20021;-40
2022/05/02 10:32:45;;;;;;;8.38;2.92;;;;;;;;;;5055700;28;20362;-42
2022/05/02 10:35:12;;;;;;;4.68;1.83;;;;;;;;;;5055825;28;20493;-41
2022/05/02 10:37:40;;;;;;;2.55;1.83;;;;;;;;;;5055924;28;20021;-41
2022/05/02 10:40:08;;;;;;;2.75;1.65;;;;;;;;;;5056151;28;20434;-41
2022/05/02 10:42:37;;;;;;;6.03;3.30;;;;;;;;;;5054329;28;20027;-40
2022/05/02 10:45:08;;;;;;;1.50;1.30;;;;;;;;;;5055522;28;20025;-39
2022/05/02 10:48:00;;;;;;;2.38;1.52;;;;;;;;;;5055507;28;20029;-41
2022/05/02 10:50:27;;;;;;;5.40;2.50;;;;;;;;;;5053562;28;20041;-42
2022/05/02 10:52:57;;;;;;;5.60;2.70;;;;;;;;;;5055709;28;20032;-41
2022/05/02 10:55:26;;;;;;;3.85;1.63;;;;;;;;;;5055096;28;20154;-41
2022/05/02 10:57:56;;;;;;;7.13;1.60;;;;;;;;;;5055573;28;20075;-42
2022/05/02 11:00:23;;;;;;;5.30;1.75;;;;;;;;;;5055442;28;20021;-41
2022/05/02 11:03:07;;;;;;;4.32;2.95;;;;;;;;;;5054431;28;20021;-42
2022/05/02 11:05:52;;;;;;;1.67;1.33;;;;;;;;;;5055243;28;20029;-43
2022/05/02 11:08:21;;;;;;;1.85;1.40;;;;;;;;;;5055161;28;20024;-41
2022/05/02 11:10:53;;;;;;;2.45;1.45;;;;;;;;;;5055340;28;20025;-41
2022/05/02 11:13:25;;;;;;;3.13;1.20;;;;;;;;;;5055306;28;20028;-41
2022/05/02 11:15:54;;;;;;;4.68;1.80;;;;;;;;;;5055124;28;20068;-45
2022/05/02 11:21:13;;;;;;;5.50;1.65;;;;;;;;;;5054903;28;20108;-40
2022/05/02 11:23:39;;;;;;;;;;;;;;;;;;5055369;28;20025;-40
2022/05/02 11:26:33;;;;;;;3.38;1.10;;;;;;;;;;5054757;28;19936;-43
2022/05/02 11:29:15;;;;;;;4.50;2.35;;;;;;;;;;5054686;28;20496;-41
2022/05/02 11:31:49;;;;;;;2.35;1.73;;;;;;;;;;5055180;28;20035;-42
2022/05/02 11:34:17;;;;;;;3.05;1.58;;;;;;;;;;5053128;28;20037;-42
2022/05/02 11:36:52;;;;;;;5.43;1.50;;;;;;;;;;5054793;28;20040;-43
2022/05/02 11:39:29;;;;;;;2.92;1.40;;;;;;;;;;5054588;28;20025;-42
2022/05/02 11:41:57;;;;;;;3.03;1.60;;;;;;;;;;5054539;28;20024;-42
2022/05/02 11:44:26;;;;;;;4.00;1.83;;;;;;;;;;5054530;28;20021;-40
2022/05/02 11:47:02;;;;;;;2.95;1.80;;;;;;;;;;5054645;28;20460;-42
2022/05/02 11:49:31;;;;;;;2.28;1.70;;;;;;;;;;5054178;28;20099;-42
2022/05/02 11:52:01;;;;;;;4.22;2.00;;;;;;;;;;5054411;28;20048;-46
2022/05/02 11:54:27;;;;;;;3.03;1.60;;;;;;;;;;5054289;28;20025;-42
2022/05/02 11:57:14;;;;;;;2.88;1.65;;;;;;;;;;5054588;28;20025;-42
2022/05/02 12:00:11;;;;;;;3.65;1.65;;;;;;;;;;5054125;28;20023;-43
2022/05/02 12:02:38;;;;;;;8.32;1.55;;;;;;;;;;5012102;28;20046;-43
2022/05/02 12:05:06;;;;;;;2.80;1.55;;;;;;;;;;5012526;28;20220;-43
2022/05/02 12:07:33;;;;;;;3.72;1.60;;;;;;;;;;5012567;28;20060;-40
2022/05/02 12:10:05;;;;;;;5.13;1.75;;;;;;;;;;5012334;28;20049;-42
2022/05/02 12:12:31;;;;;;;1.60;1.13;;;;;;;;;;5012243;28;20037;-42
2022/05/02 12:15:01;;;;;;;2.72;1.73;;;;;;;;;;4995834;28;20429;-41
2022/05/02 12:17:27;;;;;;;4.20;1.48;;;;;;;;;;5012200;28;20457;-40
2022/05/02 12:19:56;;;;;;;5.40;1.50;;;;;;;;;;5011760;28;20092;-41
2022/05/02 12:22:28;;;;;;;2.80;1.40;;;;;;;;;;5012166;28;20026;-42
2022/05/02 12:25:01;;;;;;;3.70;2.15;;;;;;;;;;5012107;28;20022;-43
2022/05/02 12:27:29;;;;;;;2.15;1.25;;;;;;;;;;5012083;28;20034;-43
2022/05/02 12:30:02;;;;;;;3.08;1.50;;;;;;;;;;5011802;28;20481;-42
2022/05/02 12:32:31;;;;;;;2.40;1.08;;;;;;;;;;5011977;28;20042;-43
2022/05/02 12:34:57;;;;;;;6.95;1.33;;;;;;;;;;4992073;28;20053;-41
2022/05/02 12:37:31;;;;;;;4.70;1.95;;;;;;;;;;4991786;28;20548;-42
2022/05/02 12:40:12;;;;;;;4.38;2.42;;;;;;;;;;5029478;28;20037;-41
2022/05/02 12:42:39;;;;;;;3.45;1.70;;;;;;;;;;5033446;28;20024;-42
2022/05/02 12:45:07;;;;;;;2.78;2.00;;;;;;;;;;5033506;28;20030;-42
2022/05/02 12:47:50;;;;;;;2.60;2.30;;;;;;;;;;5033679;28;20101;-41
2022/05/02 12:50:20;;;;;;;5.93;2.70;;;;;;;;;;5033384;28;20106;-42
2022/05/02 12:52:48;;;;;;;7.95;3.05;;;;;;;;;;5033676;28;20030;-41
2022/05/02 12:55:19;;;;;;;3.50;1.85;;;;;;;;;;5033220;28;20045;-42
2022/05/02 13:00:41;;;;;;;7.32;2.30;;;;;;;;;;5052146;28;20036;-41
2022/05/02 13:03:10;;;;;;;3.03;2.00;;;;;;;;;;5051858;28;20477;-40
2022/05/02 13:05:39;;;;;;;2.95;1.85;;;;;;;;;;5053585;28;20036;-41
2022/05/02 13:08:28;;;;;;;4.25;1.80;;;;;;;;;;5053128;28;20021;-41
2022/05/02 13:11:02;;;;;;;3.20;1.40;;;;;;;;;;5011412;28;20064;-42
2022/05/02 13:13:37;;;;;;;2.70;1.52;;;;;;;;;;5011803;28;20627;-43
2022/05/02 13:16:15;;;;;;;3.83;1.70;;;;;;;;;;5011523;28;20053;-40
2022/05/02 13:18:46;;;;;;;5.53;1.40;;;;;;;;;;5011425;28;20064;-42
2022/05/02 13:21:13;;;;;;;2.55;1.50;;;;;;;;;;4995348;28;20038;-41
2022/05/02 13:23:44;;;;;;;2.13;1.77;;;;;;;;;;5011377;28;20056;-43
2022/05/02 13:26:23;;;;;;;3.85;1.60;;;;;;;;;;5011376;28;20058;-42
2022/05/02 13:29:07;;;;;;;4.60;1.85;;;;;;;;;;5011251;28;20030;-42
2022/05/02 13:31:40;;;;;;;3.88;1.85;;;;;;;;;;5011166;28;20092;-42
2022/05/02 13:34:07;;;;;;;4.70;1.52;;;;;;;;;;5011011;28;20030;-44
2022/05/02 13:36:43;;;;;;;3.85;1.95;;;;;;;;;;5010923;28;20042;-43
2022/05/02 13:39:23;;;;;;;2.15;1.45;;;;;;;;;;5011348;28;20478;-42
2022/05/02 13:41:54;;;;;;;7.20;2.05;;;;;;;;;;5011212;28;20116;-41
2022/05/02 13:44:23;;;;;;;1.48;1.35;;;;;;;;;;5011196;28;20030;-42
2022/05/02 13:46:49;;;;;;;2.60;1.50;;;;;;;;;;5012580;28;20592;-43
2022/05/02 13:49:18;;;;;;;2.83;1.73;;;;;;;;;;5053318;28;20025;-41
2022/05/02 13:51:53;;;;;;;6.70;2.00;;;;;;;;;;5056751;28;20114;-41
2022/05/02 13:54:41;;;;;;;2.80;1.70;;;;;;;;;;5056485;28;20025;-43
2022/05/02 13:57:16;;;;;;;3.58;1.30;;;;;;;;;;5056680;28;20032;-41
2022/05/02 13:59:50;;;;;;;5.13;2.00;;;;;;;;;;5056724;28;20416;-42
2022/05/02 14:02:44;;;;;;;2.10;1.20;;;;;;;;;;5056446;28;20032;-44
2022/05/02 14:05:24;;;;;;;3.47;1.58;;;;;;;;;;5056138;28;20033;-43
2022/05/02 14:07:53;;;;;;;5.55;1.42;;;;;;;;;;5056302;28;20025;-42
2022/05/02 14:10:19;;;;;;;1.95;1.42;;;;;;;;;;5056350;28;20021;-42
2022/05/02 14:12:46;;;;;;;1.83;1.20;;;;;;;;;;5056375;28;20025;-40
2022/05/02 14:15:15;;;;;;;2.47;1.33;;;;;;;;;;5056162;28;20028;-43
2022/05/02 14:17:50;;;;;;;2.05;1.65;;;;;;;;;;5056172;28;20065;-41
2022/05/02 14:20:22;;;;;;;3.47;1.90;;;;;;;;;;5056037;28;20025;-39
2022/05/02 14:22:57;;;;;;;3.67;1.60;;;;;;;;;;5054639;28;20052;-41
2022/05/02 14:25:43;;;;;;;5.38;1.98;;;;;;;;;;5055841;28;20025;-39
2022/05/02 14:28:10;;;;;;;3.08;1.80;;;;;;;;;;5055848;28;20040;-41
2022/05/02 14:30:38;;;;;;;3.30;2.05;;;;;;;;;;5055752;28;20032;-39
2022/05/02 14:33:05;;;;;;;1.85;1.33;;;;;;;;;;5055338;28;20036;-40
2022/05/02 14:35:40;;;;;;;7.47;1.92;;;;;;;;;;5055686;28;20045;-39
2022/05/02 14:38:11;;;;;;;3.10;1.67;;;;;;;;;;5055241;28;20021;-41
2022/05/02 14:40:42;;;;;;;6.45;1.77;;;;;;;;;;5055631;28;20039;-40
2022/05/02 14:43:09;;;;;;;2.30;1.50;;;;;;;;;;5055732;28;20104;-40
2022/05/02 14:45:38;;;;;;;2.47;1.48;;;;;;;;;;5055372;28;20548;-38
2022/05/02 14:48:08;;;;;;;5.90;1.80;;;;;;;;;;5055428;28;20484;-39
2022/05/02 14:50:34;;;;;;;2.67;1.50;;;;;;;;;;5055447;28;20120;-39
2022/05/02 14:53:08;;;;;;;4.95;2.00;;;;;;;;;;5054821;28;20024;-38
2022/05/02 14:55:38;;;;;;;4.00;1.80;;;;;;;;;;5055643;28;20040;-39
2022/05/02 14:58:10;;;;;;;5.00;1.80;;;;;;;;;;5055218;28;20028;-40
2022/05/02 15:00:40;;;;;;;2.20;1.50;;;;;;;;;;5054773;28;20464;-37
2022/05/02 15:03:09;;;;;;;2.67;1.65;;;;;;;;;;5055301;28;20040;-38
2022/05/02 15:05:36;;;;;;;3.05;1.40;;;;;;;;;;5055055;28;20078;-38
2022/05/02 15:08:02;;;;;;;1.55;1.30;;;;;;;;;;5055080;28;20025;-38
2022/05/02 15:10:43;;;;;;;4.78;1.80;;;;;;;;;;5055023;28;20092;-38
2022/05/02 15:13:32;;;;;;;1.77;1.50;;;;;;;;;;5055024;28;20049;-37
2022/05/02 15:16:09;;;;;;;3.15;1.63;;;;;;;;;;5054654;28;20488;-38
2022/05/02 15:19:33;;;;;;;4.18;1.90;;;;;;;;;;5055051;28;20025;-39
2022/05/02 15:21:33;;;;;;;3.03;1.52;;;;;;;;;;5054835;28;20041;-39
2022/05/02 15:24:19;;;;;;;3.55;1.48;;;;;;;;;;5054911;28;20025;-39
2022/05/02 15:26:51;;;;;;;3.00;1.70;;;;;;;;;;5054687;28;20029;-41
2022/05/02 15:36:39;;;;;;;2.55;1.60;;;;;;;;;;5055239;28;20059;-41
2022/05/02 15:38:21;;;;;;;4.50;2.13;;;;;;;;;;5012972;28;20504;-40
2022/05/02 15:40:47;;;;;;;2.78;1.90;;;;;;;;;;4996694;28;20033;-38
2022/05/02 15:43:22;;;;;;;3.15;1.90;;;;;;;;;;5012783;28;20046;-40